Latest Weather Observations for Rutherglen RS

IDV60801

Issued at 6:05 pm EST Thursday 24 July 2014 (issued every 30 minutes, with the page automatically refreshed every 10 minutes)

About weather observations | Map of weather stations | Latest weather observations for VIC | Other Formats
Station Details ID: 082039 Name: RUTHERGLEN RESEARCH Lat: -36.10 Lon: 146.51 Height: 175.0 m
Data from the previous 72 hours. | See also: Recent months at Rutherglen RS
Date/Time
EST
Temp
°C
App
Temp
°C
Dew
Point
Rel
Hum
%
Delta-T
°C
Wind Press
QNH
hPa
Press
MSL
hPa
Rain
since 9 am
mm
Dir
 
Spd
km/h
Gust
km/h
Spd
kts
Gust
kts
24/06:00pm 10.6 6.6 8.2 85 1.2 ENE 19 24 10 13 - - 0.2
24/05:30pm 11.5 7.4 8.7 83 1.4 ENE 20 30 11 16 - - 0.2
24/05:00pm 11.7 7.9 8.9 83 1.4 ENE 19 24 10 13 - - 0.2
24/04:30pm 11.8 7.9 9.4 85 1.2 ENE 20 28 11 15 - - 0.2
24/04:00pm 11.9 8.0 9.5 85 1.2 ENE 20 28 11 15 - - 0.2
24/03:30pm 11.7 8.1 9.8 88 1.0 E 19 26 10 14 - - 0.2
24/03:00pm 12.7 9.1 10.6 87 1.1 ENE 20 32 11 17 - - 0.2
24/02:30pm 11.9 7.3 9.8 87 1.1 ENE 24 32 13 17 - - 0.2
24/02:00pm 12.6 8.5 10.1 85 1.3 ENE 22 32 12 17 - - 0.2
24/01:30pm 12.5 8.4 10.0 85 1.3 ENE 22 33 12 18 - - 0.2
24/01:00pm 11.8 8.2 10.0 89 0.9 ENE 19 28 10 15 - - 0.2
24/12:30pm 11.7 8.6 10.3 91 0.7 ENE 17 24 9 13 - - 0.2
24/12:00pm 10.1 6.7 9.3 95 0.4 ENE 17 24 9 13 - - 0.2
24/11:30am 10.6 7.6 9.4 92 0.6 ENE 15 20 8 11 - - 0.2
24/11:00am 10.2 7.4 8.6 90 0.8 ENE 13 20 7 11 - - 0.2
24/10:30am 10.0 6.4 8.4 90 0.8 ENE 17 28 9 15 - - 0.2
24/10:00am 9.6 6.0 8.5 93 0.5 ENE 17 24 9 13 - - 0.2
24/09:30am 9.3 5.2 7.7 90 0.8 ENE 19 26 10 14 - - 0.0
24/09:00am 9.0 4.3 7.6 91 0.7 ENE 22 39 12 21 - - 0.2
24/08:30am 9.3 4.8 6.9 85 1.1 ENE 20 28 11 15 - - 0.0
24/08:00am 9.0 5.0 6.8 86 1.0 ENE 17 24 9 13 - - 0.0
24/07:30am 8.9 5.0 7.0 88 0.9 ENE 17 22 9 12 - - 0.0
24/07:00am 8.3 5.5 6.9 91 0.7 ENE 11 15 6 8 - - 0.0
24/06:30am 7.4 4.9 6.7 95 0.3 ENE 9 13 5 7 - - 0.0
24/06:00am 5.9 3.2 5.8 99 0.0 E 9 11 5 6 - - 0.0
24/05:30am 4.9 2.4 4.9 100 0.0 E 7 11 4 6 - - 0.0
24/05:00am 4.4 1.5 4.4 100 0.0 E 9 11 5 6 - - 0.0
24/04:30am 4.8 1.9 4.8 100 0.0 E 9 11 5 6 - - 0.0
24/04:00am 5.6 3.3 5.6 100 0.0 ENE 7 11 4 6 - - 0.0
24/03:30am 5.9 3.8 5.9 100 0.0 ENE 6 11 3 6 - - 0.0
24/03:00am 6.0 3.8 6.0 100 0.0 E 7 9 4 5 - - 0.0
24/02:30am 7.0 4.6 6.9 99 0.0 E 9 11 5 6 - - 0.0
24/02:00am 6.9 3.7 6.9 100 0.0 E 13 17 7 9 - - 0.0
24/01:30am 5.8 2.8 5.8 100 0.0 E 11 15 6 8 - - 0.0
24/01:00am 6.0 3.0 6.0 100 0.0 E 11 15 6 8 - - 0.0
24/12:30am 4.8 1.5 4.8 100 0.0 E 11 15 6 8 - - 0.0
24/12:00am 4.9 1.7 4.9 100 0.0 E 11 15 6 8 - - 0.0
 
Date/Time
EST
Temp
°C
App
Temp
°C
Dew
Point
Rel
Hum
%
Delta-T
°C
Wind Press
QNH
hPa
Press
MSL
hPa
Rain
since 9 am
mm
Dir
 
Spd
km/h
Gust
km/h
Spd
kts
Gust
kts
23/11:30pm 5.8 2.8 5.8 100 0.0 E 11 13 6 7 - - 0.0
23/11:00pm 3.0 -0.2 3.0 100 0.0 E 9 13 5 7 - - 0.0
23/10:30pm 2.5 -0.4 2.5 100 0.0 ESE 7 9 4 5 - - 0.0
23/10:00pm 2.1 -0.7 2.1 100 0.0 SE 6 7 3 4 - - 0.0
23/09:30pm 1.3 -1.8 1.3 100 0.0 E 7 9 4 5 - - 0.0
23/09:00pm 2.2 -0.6 2.2 100 0.0 E 6 7 3 4 - - 0.0
23/08:30pm 2.3 0.3 2.3 100 0.0 ESE 2 6 1 3 - - 0.0
23/08:00pm 2.9 1.4 2.9 100 0.0 CALM 0 0 0 0 - - 0.0
23/07:30pm 2.3 -0.5 2.3 100 0.0 E 6 7 3 4 - - 0.0
23/07:00pm 2.5 -0.2 2.5 100 0.0 ENE 6 7 3 4 - - 0.0
23/06:30pm 3.7 1.2 3.7 100 0.0 ENE 6 7 3 4 - - 0.0
23/06:00pm 6.5 5.7 6.5 100 0.0 CALM 0 0 0 0 - - 0.0
23/05:30pm 8.6 8.3 8.5 99 0.0 CALM 0 0 0 0 - - 0.0
23/05:00pm 10.4 9.2 9.6 95 0.4 E 6 7 3 4 - - 0.0
23/04:30pm 11.9 10.8 9.8 87 1.1 ENE 6 7 3 4 - - 0.0
23/04:00pm 12.2 10.9 9.8 85 1.2 ENE 7 11 4 6 - - 0.0
23/03:30pm 13.2 11.4 9.6 79 1.9 NE 9 13 5 7 - - 0.0
23/03:00pm 13.5 11.8 9.7 78 2.0 ENE 9 19 5 10 - - 0.0
23/02:30pm 14.1 12.4 9.9 76 2.2 NE 9 15 5 8 - - 0.0
23/02:00pm 13.4 11.6 9.6 78 2.0 ENE 9 13 5 7 - - 0.0
23/01:30pm 12.8 11.0 9.3 79 1.8 NE 9 13 5 7 - - 0.0
23/01:00pm 12.5 9.8 9.1 80 1.7 ENE 13 17 7 9 - - 0.0
23/12:30pm 12.8 10.5 9.1 78 1.9 NE 11 15 6 8 - - 0.0
23/12:00pm 12.8 10.5 9.1 78 1.9 NE 11 19 6 10 - - 0.0
23/11:30am 12.3 9.6 8.8 79 1.8 ENE 13 19 7 10 - - 0.0
23/11:00am 11.0 8.2 8.4 84 1.3 ENE 13 17 7 9 - - 0.0
23/10:30am 9.4 7.2 7.7 89 0.8 NE 9 13 5 7 - - 0.0
23/10:00am 8.4 6.7 8.3 99 0.0 NE 7 11 4 6 - - 0.0
23/09:30am 5.4 4.4 5.4 100 0.0 CALM 0 0 0 0 - - 0.0
23/09:00am 2.3 0.7 2.3 100 0.0 CALM 0 0 0 0 - - 0.2
23/08:30am 0.2 -1.8 0.2 100 0.0 CALM 0 0 0 0 - - 0.2
23/08:00am -2.2 -4.5 -2.2 100 0.0 CALM 0 0 0 0 - - 0.2
23/07:30am -3.7 -6.2 -3.7 100 0.0 CALM 0 0 0 0 - - 0.2
23/07:00am -3.5 -5.9 -3.5 100 0.0 CALM 0 0 0 0 - - 0.2
23/06:30am -2.9 -5.3 -2.9 100 0.0 CALM 0 0 0 0 - - 0.2
23/06:00am -3.2 -5.6 -3.2 100 0.0 CALM 0 0 0 0 - - 0.2
23/05:30am -2.7 -5.0 -2.7 100 0.0 CALM 0 0 0 0 - - 0.2
23/05:00am -3.4 -5.8 -3.4 100 0.0 CALM 0 0 0 0 - - 0.2
23/04:30am -3.5 -5.9 -3.5 100 0.0 CALM 0 0 0 0 - - 0.2
23/04:00am -2.2 -4.5 -2.2 100 0.0 CALM 0 0 0 0 - - 0.2
23/03:30am -2.9 -5.3 -2.9 100 0.0 CALM 0 0 0 0 - - 0.2
23/03:00am -2.5 -4.8 -2.5 100 0.0 CALM 0 0 0 0 - - 0.2
23/02:30am -2.1 -4.4 -2.1 100 0.0 CALM 0 0 0 0 - - 0.2
23/02:00am -1.5 -3.7 -1.5 100 0.0 CALM 0 0 0 0 - - 0.2
23/01:30am -1.6 -3.8 -1.6 100 0.0 CALM 0 0 0 0 - - 0.2
23/01:00am -1.6 -3.8 -1.6 100 0.0 CALM 0 0 0 0 - - 0.2
23/12:30am -1.5 -3.7 -1.5 100 0.0 CALM 0 0 0 0 - - 0.2
23/12:00am -1.3 -3.5 -1.3 100 0.0 CALM 0 0 0 0 - - 0.2
 
Date/Time
EST
Temp
°C
App
Temp
°C
Dew
Point
Rel
Hum
%
Delta-T
°C
Wind Press
QNH
hPa
Press
MSL
hPa
Rain
since 9 am
mm
Dir
 
Spd
km/h
Gust
km/h
Spd
kts
Gust
kts
22/11:30pm -0.5 -2.6 -0.5 100 0.0 CALM 0 0 0 0 - - 0.2
22/11:00pm 0.1 -1.9 0.1 100 0.0 CALM 0 0 0 0 - - 0.2
22/10:30pm -1.0 -3.1 -1.0 100 0.0 CALM 0 0 0 0 - - 0.2
22/10:00pm 0.2 -1.8 0.2 100 0.0 CALM 0 0 0 0 - - 0.2
22/09:30pm 0.8 -1.1 0.8 100 0.0 CALM 0 0 0 0 - - 0.2
22/09:00pm -0.2 -2.6 -0.2 100 0.0 ESE 2 7 1 4 - - 0.2
22/08:30pm 0.9 -0.9 0.9 100 0.0 CALM 0 0 0 0 - - 0.2
22/08:00pm 0.8 -1.1 0.8 100 0.0 CALM 0 0 0 0 - - 0.2
22/07:30pm 1.1 -0.7 1.1 100 0.0 CALM 0 0 0 0 - - 0.2
22/07:00pm 2.4 0.8 2.4 100 0.0 CALM 0 0 0 0 - - 0.2
22/06:30pm 3.3 1.9 3.3 100 0.0 CALM 0 0 0 0 - - 0.2
22/06:00pm 5.1 4.0 5.0 99 0.0 CALM 0 0 0 0 - - 0.2
22/05:30pm 7.3 5.2 5.6 89 0.8 NW 6 7 3 4 - - 0.2
22/05:00pm 10.4 8.5 6.7 78 1.8 W 6 7 3 4 - - 0.2
22/04:30pm 12.5 10.9 7.8 73 2.3 WSW 6 7 3 4 - - 0.2
22/04:00pm 12.5 10.5 7.2 70 2.6 SW 7 9 4 5 - - 0.2
22/03:30pm 13.1 11.7 7.3 68 2.8 SW 4 9 2 5 - - 0.2
22/03:00pm 12.7 10.9 7.0 68 2.8 SSW 6 9 3 5 - - 0.2
22/02:30pm 12.3 10.5 7.0 70 2.6 S 6 11 3 6 - - 0.2
22/02:00pm 12.5 10.6 7.4 71 2.5 WSW 7 11 4 6 - - 0.2
22/01:30pm 12.5 10.9 7.8 73 2.3 W 6 11 3 6 - - 0.2
22/01:00pm 11.7 10.1 7.8 77 1.9 S 6 9 3 5 - - 0.2
22/12:30pm 11.6 9.5 6.5 71 2.4 WNW 7 9 4 5 - - 0.0
22/12:00pm 10.7 9.0 7.4 80 1.6 SSW 6 9 3 5 - - 0.0
22/11:30am 10.9 9.1 7.2 78 1.8 NW 6 9 3 5 - - 0.0
22/11:00am 9.2 7.3 6.8 85 1.1 WNW 6 9 3 5 - - 0.0
22/10:30am 8.5 6.6 6.8 89 0.8 N 6 9 3 5 - - 0.0
22/10:00am 5.8 4.8 5.8 100 0.0 CALM 0 0 0 0 - - 0.0
22/09:30am 4.4 3.2 4.4 100 0.0 CALM 0 0 0 0 - - 0.0
22/09:00am 1.7 0.0 1.7 100 0.0 CALM 0 0 0 0 - - 0.0
22/08:30am -0.7 -2.8 -0.7 100 0.0 CALM 0 0 0 0 - - 0.0
22/08:00am -1.7 -3.9 -1.7 100 0.0 CALM 0 6 0 3 - - 0.0
22/07:30am -4.2 -6.7 -4.2 100 0.0 CALM 0 0 0 0 - - 0.0
22/07:00am -3.6 -6.1 -3.6 100 0.0 CALM 0 2 0 1 - - 0.0
22/06:30am -3.6 -6.8 -3.6 100 0.0 NE 4 7 2 4 - - 0.0
22/06:00am -3.1 -5.5 -3.1 100 0.0 CALM 0 0 0 0 - - 0.0
22/05:30am -2.6 -4.9 -2.6 100 0.0 CALM 0 0 0 0 - - 0.0
22/05:00am -2.6 -6.1 -2.6 100 0.0 WSW 6 6 3 3 - - 0.0
22/04:30am -2.7 -5.0 -2.7 100 0.0 CALM 0 0 0 0 - - 0.0
22/04:00am -2.3 -4.6 -2.3 100 0.0 CALM 0 0 0 0 - - 0.0
22/03:30am -2.1 -4.8 -2.1 100 0.0 E 2 7 1 4 - - 0.0
22/03:00am -1.8 -4.0 -1.8 100 0.0 CALM 0 2 0 1 - - 0.0
22/02:30am -1.2 -3.4 -1.2 100 0.0 CALM 0 6 0 3 - - 0.0
22/02:00am -0.6 -2.7 -0.6 100 0.0 CALM 0 0 0 0 - - 0.0
22/01:30am -0.8 -2.9 -0.8 100 0.0 CALM 0 0 0 0 - - 0.0
22/01:00am -0.6 -3.4 -0.6 100 0.0 SE 4 7 2 4 - - 0.0
22/12:30am -0.6 -2.7 -0.6 100 0.0 CALM 0 0 0 0 - - 0.0
22/12:00am -0.4 -2.4 -0.4 100 0.0 CALM 0 0 0 0 - - 0.0
 
Date/Time
EST
Temp
°C
App
Temp
°C
Dew
Point
Rel
Hum
%
Delta-T
°C
Wind Press
QNH
hPa
Press
MSL
hPa
Rain
since 9 am
mm
Dir
 
Spd
km/h
Gust
km/h
Spd
kts
Gust
kts
21/11:30pm 0.3 -1.6 0.3 100 0.0 CALM 0 0 0 0 - - 0.0
21/11:00pm 0.8 -1.1 0.8 100 0.0 CALM 0 0 0 0 - - 0.0
21/10:30pm 1.5 -0.3 1.5 100 0.0 CALM 0 0 0 0 - - 0.0
21/10:00pm 1.7 0.0 1.7 100 0.0 CALM 0 0 0 0 - - 0.0
21/09:30pm 1.4 -0.4 1.4 100 0.0 CALM 0 0 0 0 - - 0.0
21/09:00pm 2.1 0.4 2.1 100 0.0 CALM 0 0 0 0 - - 0.0
21/08:30pm 2.3 0.7 2.3 100 0.0 CALM 0 7 0 4 - - 0.0
21/08:00pm 3.3 1.9 3.3 100 0.0 CALM 0 0 0 0 - - 0.0
21/07:30pm 3.7 1.9 3.7 100 0.0 SSE 2 9 1 5 - - 0.0
21/07:00pm 4.1 2.8 4.1 100 0.0 CALM 0 0 0 0 - - 0.0
21/06:30pm 4.3 3.0 4.3 100 0.0 CALM 0 0 0 0 - - 0.0

Other Formats:

Comma delimited format used in spreadsheet applications
http://www.bom.gov.au/fwo/IDV60801/IDV60801.95837.axf

JavaScript Object Notation format (JSON) in row-major order
http://www.bom.gov.au/fwo/IDV60801/IDV60801.95837.json